Time;durP1;ratioP1;P1;durP2;ratioP2;P2;SDS_P1;SDS_P2;PMS_P1;PMS_P2;Temp;Humidity;BMP_temperature;BMP_pressure;BME280_temperature;BME280_humidity;BME280_pressure;Samples;Min_cycle;Max_cycle;Signal;HPM_P1;HPM_P2
2023/09/29 00:00:32;;;;;;;10.33;9.73;;;;;;;18.99;91.27;100407.16;5065835;28;20225;-81
2023/09/29 00:02:59;;;;;;;10.07;9.20;;;;;;;18.99;91.10;100408.03;5066932;28;20220;-82
2023/09/29 00:05:27;;;;;;;10.20;9.43;;;;;;;19.01;90.52;100413.22;5065573;28;20308;-81
2023/09/29 00:07:53;;;;;;;11.47;10.57;;;;;;;18.96;89.87;100436.41;5066995;28;20208;-81
2023/09/29 00:10:21;;;;;;;11.87;10.23;;;;;;;19.04;89.54;100443.00;5066312;28;20220;-83
2023/09/29 00:12:49;;;;;;;10.40;9.60;;;;;;;19.07;89.20;100455.22;5066252;28;20208;-83
2023/09/29 00:15:17;;;;;;;16.90;15.70;;;;;;;19.04;87.57;100469.44;5059879;28;20216;-82
2023/09/29 00:17:43;;;;;;;16.90;15.77;;;;;;;18.95;87.00;100499.06;5046856;28;20209;-82
2023/09/29 00:20:17;;;;;;;16.83;15.33;;;;;;;18.91;86.90;100508.09;5046662;28;20233;-83
2023/09/29 00:22:45;;;;;;;15.57;14.33;;;;;;;18.78;86.68;100521.06;5047481;28;20212;-80
2023/09/29 00:25:12;;;;;;;14.80;13.80;;;;;;;18.65;86.50;100525.25;5047391;28;20204;-84
2023/09/29 00:27:38;;;;;;;15.27;14.20;;;;;;;18.34;87.87;100512.78;5047618;28;20237;-83
2023/09/29 00:30:06;;;;;;;14.47;13.47;;;;;;;18.40;88.20;100500.09;5049223;28;20240;-82
2023/09/29 00:32:32;;;;;;;13.37;12.57;;;;;;;18.21;89.45;100473.72;5050109;28;20223;-83
2023/09/29 00:34:59;;;;;;;13.50;12.13;;;;;;;18.33;89.00;100466.13;5055380;28;20205;-81
2023/09/29 00:37:26;;;;;;;13.20;12.20;;;;;;;18.39;88.59;100468.44;5072020;28;20231;-80
2023/09/29 00:39:55;;;;;;;12.87;12.07;;;;;;;18.48;88.00;100478.56;5076100;28;20239;-82
2023/09/29 00:42:22;;;;;;;12.70;11.87;;;;;;;18.50;87.80;100483.78;5076576;28;20188;-81
2023/09/29 00:44:48;;;;;;;12.77;11.93;;;;;;;18.50;87.97;100483.78;5058377;28;20217;-81
2023/09/29 00:47:15;;;;;;;12.77;11.87;;;;;;;18.50;87.45;100487.25;5062581;28;20255;-82
2023/09/29 00:49:42;;;;;;;12.43;11.47;;;;;;;18.48;87.44;100486.50;5050192;28;20335;-83
2023/09/29 00:52:09;;;;;;;12.23;11.43;;;;;;;18.44;87.31;100485.78;5066545;28;20215;-82
2023/09/29 00:54:37;;;;;;;11.50;10.70;;;;;;;18.43;87.69;100478.81;5061859;28;20687;-82
2023/09/29 00:57:06;;;;;;;10.07;9.47;;;;;;;18.43;87.43;100477.91;5050103;28;20202;-81
2023/09/29 00:59:34;;;;;;;11.97;11.27;;;;;;;18.35;87.78;100470.38;5059106;28;20235;-81
2023/09/29 01:02:03;;;;;;;11.33;10.70;;;;;;;18.34;88.32;100452.84;5062000;28;20216;-82
2023/09/29 01:04:31;;;;;;;12.23;11.23;;;;;;;18.31;88.58;100438.91;5063411;28;20211;-81
2023/09/29 01:06:58;;;;;;;11.47;10.67;;;;;;;18.29;89.40;100439.00;5063102;28;20232;-83
2023/09/29 01:09:24;;;;;;;11.77;10.97;;;;;;;18.33;89.36;100424.69;5064483;28;20257;-82
2023/09/29 01:11:52;;;;;;;11.13;10.43;;;;;;;18.31;89.69;100417.78;5061902;28;20595;-83
2023/09/29 01:14:19;;;;;;;11.70;10.90;;;;;;;18.32;89.29;100423.00;5057080;28;20212;-83
2023/09/29 01:16:46;;;;;;;12.17;11.27;;;;;;;18.32;89.52;100427.44;5068995;28;20238;-82
2023/09/29 01:19:13;;;;;;;11.17;10.57;;;;;;;18.31;89.92;100415.97;5041920;28;20711;-83
2023/09/29 01:21:39;;;;;;;11.00;10.30;;;;;;;18.32;89.87;100423.00;5044610;28;20220;-83
2023/09/29 01:24:08;;;;;;;11.77;10.87;;;;;;;18.32;89.92;100408.94;5043587;28;20216;-81
2023/09/29 01:26:34;;;;;;;11.13;10.23;;;;;;;18.32;89.90;100414.22;5051293;28;20635;-80
2023/09/29 01:29:01;;;;;;;11.53;10.67;;;;;;;18.32;89.94;100423.00;5055112;28;20228;-82
2023/09/29 01:31:28;;;;;;;15.87;14.73;;;;;;;18.36;89.68;100428.97;5063634;28;20219;-80
2023/09/29 01:33:54;;;;;;;15.27;14.20;;;;;;;18.36;89.31;100437.75;5065091;28;20208;-83
2023/09/29 01:36:21;;;;;;;16.97;15.67;;;;;;;18.35;88.82;100438.66;5068186;28;20205;-83
2023/09/29 01:38:47;;;;;;;16.87;15.57;;;;;;;18.33;88.46;100447.63;5063535;28;20290;-82
2023/09/29 01:41:15;;;;;;;17.17;15.87;;;;;;;18.32;88.49;100446.78;5064144;28;20213;-82
2023/09/29 01:43:41;;;;;;;17.10;15.97;;;;;;;18.33;88.66;100448.47;5063470;28;20211;-81
2023/09/29 01:46:09;;;;;;;15.67;14.47;;;;;;;18.30;88.50;100455.72;5068008;28;20661;-82
2023/09/29 01:48:35;;;;;;;16.93;15.77;;;;;;;18.26;88.70;100453.22;5043885;28;20201;-83
2023/09/29 01:51:02;;;;;;;16.60;15.47;;;;;;;18.25;88.97;100446.25;5044007;28;20239;-81
2023/09/29 01:53:30;;;;;;;17.07;15.87;;;;;;;18.29;88.90;100441.63;5051649;28;20243;-82
2023/09/29 01:55:57;;;;;;;15.93;14.93;;;;;;;18.24;89.09;100441.03;5063898;28;20235;-84
2023/09/29 01:58:24;;;;;;;15.07;13.80;;;;;;;18.25;89.15;100446.25;5064451;28;20252;-83
2023/09/29 02:00:51;;;;;;;15.33;14.23;;;;;;;18.25;89.17;100440.97;5065254;28;20224;-82
2023/09/29 02:03:17;;;;;;;13.93;13.00;;;;;;;18.24;89.42;100446.31;5049739;28;20639;-82
2023/09/29 02:05:44;;;;;;;15.07;13.97;;;;;;;18.23;89.27;100449.88;5050311;28;20200;-81
2023/09/29 02:08:12;;;;;;;14.60;13.70;;;;;;;18.26;89.31;100449.72;5059647;28;20213;-81
2023/09/29 02:10:38;;;;;;;14.40;13.60;;;;;;;18.26;89.57;100447.09;5068462;28;20256;-82
2023/09/29 02:13:05;;;;;;;14.43;13.47;;;;;;;18.29;89.54;100448.72;5054086;28;20200;-83
2023/09/29 02:15:34;;;;;;;13.97;12.67;;;;;;;18.29;89.26;100443.44;5071404;28;20237;-82
2023/09/29 02:18:00;;;;;;;14.40;13.43;;;;;;;18.26;89.36;100440.00;5046136;28;20565;-84
2023/09/29 02:20:29;;;;;;;13.73;12.73;;;;;;;18.24;89.37;100444.50;5045019;28;20224;-83
2023/09/29 02:22:56;;;;;;;11.40;10.67;;;;;;;18.23;89.92;100434.88;5044213;28;20201;-82
2023/09/29 02:25:25;;;;;;;11.50;10.70;;;;;;;18.22;89.70;100427.88;5056284;28;20212;-82
2023/09/29 02:27:52;;;;;;;13.20;12.37;;;;;;;18.20;89.75;100436.84;5063157;28;20327;-81
2023/09/29 02:30:18;;;;;;;12.57;11.77;;;;;;;18.24;89.86;100428.66;5062776;28;20262;-82
2023/09/29 02:32:47;;;;;;;11.87;11.07;;;;;;;18.22;90.33;100421.75;5064298;28;20200;-82
2023/09/29 02:35:14;;;;;;;12.10;11.30;;;;;;;18.21;91.11;100412.09;5063754;28;20204;-83
2023/09/29 02:37:42;;;;;;;12.30;11.47;;;;;;;18.19;91.86;100400.75;5054501;28;20213;-83
2023/09/29 02:40:15;;;;;;;14.60;13.60;;;;;;;18.13;91.68;100394.00;5046171;28;20235;-82
2023/09/29 02:42:42;;;;;;;16.37;15.03;;;;;;;18.11;91.52;100387.94;5061679;28;20211;-81
2023/09/29 02:45:09;;;;;;;15.97;14.97;;;;;;;18.14;90.96;100405.44;5062395;28;20205;-84
2023/09/29 02:47:39;;;;;;;15.60;14.67;;;;;;;18.11;91.35;100387.94;5064767;28;20226;-84
2023/09/29 02:50:09;;;;;;;15.47;14.37;;;;;;;18.12;91.12;100396.75;5041898;28;20235;-83
2023/09/29 02:52:35;;;;;;;16.23;15.17;;;;;;;18.12;91.17;100387.03;5041789;28;20207;-80
2023/09/29 02:55:03;;;;;;;15.90;14.90;;;;;;;18.01;91.92;100369.06;5041979;28;20212;-83
2023/09/29 02:57:29;;;;;;;14.70;13.60;;;;;;;18.04;92.20;100373.34;5042027;28;20217;-82
2023/09/29 02:59:57;;;;;;;15.10;14.00;;;;;;;18.06;92.55;100360.91;5042304;28;20235;-82
2023/09/29 03:02:23;;;;;;;14.53;13.53;;;;;;;18.08;92.56;100359.06;5041932;28;20207;-82
2023/09/29 03:04:51;;;;;;;14.17;13.27;;;;;;;18.09;92.74;100355.47;5041523;28;20211;-81
2023/09/29 03:07:18;;;;;;;13.70;12.70;;;;;;;18.10;92.87;100346.63;5042495;28;20222;-82
2023/09/29 03:09:46;;;;;;;14.33;13.37;;;;;;;18.10;92.80;100349.25;5045888;28;20235;-81
2023/09/29 03:12:13;;;;;;;13.70;12.53;;;;;;;18.13;92.56;100351.72;5066916;28;20211;-81
2023/09/29 03:14:39;;;;;;;12.80;12.10;;;;;;;18.13;92.64;100364.09;5074211;28;20206;-81
2023/09/29 03:17:06;;;;;;;13.73;12.83;;;;;;;18.09;93.08;100350.19;5058660;28;20208;-81
2023/09/29 03:19:32;;;;;;;12.40;11.57;;;;;;;18.08;93.58;100343.22;5065819;28;20750;-80
2023/09/29 03:21:59;;;;;;;11.57;10.67;;;;;;;18.12;94.43;100336.81;5068013;28;20266;-83
2023/09/29 03:24:27;;;;;;;10.43;9.70;;;;;;;18.12;94.46;100336.81;5066164;28;20208;-81
2023/09/29 03:26:54;;;;;;;8.33;7.83;;;;;;;18.16;94.73;100324.31;5066340;28;20238;-82
2023/09/29 03:29:20;;;;;;;7.23;6.70;;;;;;;18.16;95.42;100311.97;5066423;28;20701;-82
2023/09/29 03:31:47;;;;;;;7.43;7.03;;;;;;;18.20;96.07;100295.00;5058224;28;20248;-82
2023/09/29 03:34:15;;;;;;;7.33;6.67;;;;;;;18.23;96.04;100302.75;5045568;28;20296;-83
2023/09/29 03:36:41;;;;;;;7.33;6.83;;;;;;;18.24;96.36;100293.06;5047483;28;20208;-82
2023/09/29 03:39:09;;;;;;;8.53;6.30;;;;;;;18.23;96.48;100286.06;5046359;28;20235;-83
2023/09/29 03:41:37;;;;;;;7.20;6.60;;;;;;;18.24;96.74;100291.25;5046505;28;20246;-83
2023/09/29 03:44:04;;;;;;;6.60;6.10;;;;;;;18.24;96.82;100285.97;5057604;28;20218;-82
2023/09/29 03:46:30;;;;;;;6.60;6.17;;;;;;;18.28;96.48;100285.81;5060213;28;20211;-82
2023/09/29 03:48:57;;;;;;;6.60;6.20;;;;;;;18.31;96.22;100289.13;5054986;28;20228;-80
2023/09/29 03:51:24;;;;;;;6.97;6.47;;;;;;;18.33;96.00;100297.00;5048724;28;20210;-81
2023/09/29 03:53:53;;;;;;;6.13;5.63;;;;;;;18.34;95.83;100301.34;5060450;28;20203;-81
2023/09/29 03:56:22;;;;;;;6.60;6.10;;;;;;;18.34;96.22;100310.13;5066431;28;20215;-81
2023/09/29 03:58:51;;;;;;;5.50;5.20;;;;;;;18.31;96.64;100296.22;5066744;28;20210;-80
2023/09/29 04:01:17;;;;;;;6.73;6.07;;;;;;;18.35;96.50;100303.88;5066833;28;20211;-81
2023/09/29 04:03:44;;;;;;;6.17;5.70;;;;;;;18.35;96.39;100301.25;5066302;28;20209;-82
2023/09/29 04:06:11;;;;;;;6.27;5.87;;;;;;;18.38;96.15;100313.47;5065969;28;20722;-81
2023/09/29 04:08:37;;;;;;;6.47;5.97;;;;;;;18.38;96.28;100322.25;5067134;28;20239;-83
2023/09/29 04:11:04;;;;;;;6.37;5.97;;;;;;;18.38;96.43;100308.19;5066550;28;20205;-83
2023/09/29 04:13:30;;;;;;;5.70;5.27;;;;;;;18.40;96.56;100304.50;5066580;28;20215;-81
2023/09/29 04:15:59;;;;;;;5.47;5.17;;;;;;;18.41;96.68;100306.22;5066499;28;20208;-82
2023/09/29 04:18:26;;;;;;;5.97;5.37;;;;;;;18.39;97.35;100301.94;5047502;28;20198;-83
2023/09/29 04:20:52;;;;;;;5.50;5.10;;;;;;;18.41;97.10;100302.72;5064300;28;20283;-82
2023/09/29 04:23:19;;;;;;;5.87;5.40;;;;;;;18.45;97.74;100301.59;5054775;28;20208;-80
2023/09/29 04:25:46;;;;;;;7.27;5.93;;;;;;;18.45;98.01;100293.69;5046549;28;20212;-82
2023/09/29 04:28:12;;;;;;;6.20;5.70;;;;;;;18.53;97.76;100286.22;5066739;28;20229;-81
2023/09/29 04:30:38;;;;;;;5.70;5.30;;;;;;;18.44;98.97;100279.63;5066894;28;20235;-81
2023/09/29 04:33:06;;;;;;;5.70;5.27;;;;;;;18.44;99.31;100269.03;5066591;28;20208;-82
2023/09/29 04:35:34;;;;;;;6.43;5.93;;;;;;;18.46;99.70;100264.53;5066314;28;20241;-82
2023/09/29 04:38:01;;;;;;;5.27;4.73;;;;;;;18.50;98.72;100275.78;5066986;28;20204;-81
2023/09/29 04:40:28;;;;;;;5.13;4.73;;;;;;;18.53;98.78;100272.13;5065427;28;20255;-80
2023/09/29 04:42:54;;;;;;;5.50;5.10;;;;;;;18.53;98.80;100278.28;5066314;28;20200;-82
2023/09/29 04:45:21;;;;;;;6.10;5.60;;;;;;;18.58;99.00;100275.38;5065937;28;20207;-82
2023/09/29 04:47:47;;;;;;;5.60;5.10;;;;;;;18.58;98.89;100284.16;5067065;28;20227;-82
2023/09/29 04:50:15;;;;;;;5.73;5.33;;;;;;;18.59;98.78;100279.72;5061938;28;20221;-82
2023/09/29 04:52:42;;;;;;;5.60;5.30;;;;;;;18.60;98.30;100284.91;5067241;28;20217;-82
2023/09/29 04:55:09;;;;;;;5.63;5.13;;;;;;;18.62;98.02;100283.03;5067216;28;20223;-82
2023/09/29 04:57:38;;;;;;;5.57;5.20;;;;;;;18.57;98.86;100273.66;5068108;28;20211;-83
2023/09/29 05:00:06;;;;;;;5.27;4.77;;;;;;;18.58;99.36;100265.66;5068200;28;20228;-81
2023/09/29 05:02:32;;;;;;;5.87;4.57;;;;;;;18.59;98.83;100283.22;5065568;28;20214;-82
2023/09/29 05:04:59;;;;;;;5.27;4.97;;;;;;;18.60;99.12;100279.63;5059083;28;20220;-82
2023/09/29 05:07:27;;;;;;;4.77;4.47;;;;;;;18.65;98.84;100284.66;5049702;28;20232;-82
2023/09/29 05:09:53;;;;;;;4.97;4.57;;;;;;;18.66;98.67;100286.38;5050542;28;20250;-82
2023/09/29 05:12:19;;;;;;;4.10;3.80;;;;;;;18.59;98.69;100292.94;5055610;28;20193;-82
2023/09/29 05:14:48;;;;;;;4.50;4.20;;;;;;;18.64;98.74;100282.97;5066699;28;20212;-79
2023/09/29 05:17:16;;;;;;;4.50;4.20;;;;;;;18.67;98.81;100282.78;5072623;28;20207;-81
2023/09/29 05:19:42;;;;;;;5.07;4.67;;;;;;;18.71;98.40;100281.69;5072474;28;20232;-82
2023/09/29 05:22:09;;;;;;;4.57;4.17;;;;;;;18.77;97.52;100293.72;5073301;28;20216;-81
2023/09/29 05:24:37;;;;;;;4.67;4.13;;;;;;;18.73;97.93;100294.81;5069482;28;20208;-81
2023/09/29 05:27:03;;;;;;;4.70;4.30;;;;;;;18.75;97.92;100290.28;5067387;28;20218;-82
2023/09/29 05:29:30;;;;;;;4.60;4.30;;;;;;;18.78;97.80;100288.34;5068311;28;20224;-83
2023/09/29 05:31:56;;;;;;;4.20;3.90;;;;;;;18.79;97.69;100291.81;5066315;28;20210;-81
2023/09/29 05:34:23;;;;;;;4.93;4.53;;;;;;;18.82;97.19;100300.47;5055751;28;20580;-79
2023/09/29 05:36:50;;;;;;;5.13;4.63;;;;;;;18.81;96.97;100298.78;5053115;28;20214;-83
2023/09/29 05:39:16;;;;;;;4.03;3.83;;;;;;;18.82;97.01;100308.41;5055564;28;20223;-81
2023/09/29 05:41:44;;;;;;;4.53;3.90;;;;;;;18.84;96.08;100314.47;5057308;28;20217;-80
2023/09/29 05:44:10;;;;;;;4.33;3.97;;;;;;;18.84;96.12;100316.28;5054170;28;20217;-82
2023/09/29 05:46:37;;;;;;;4.47;4.10;;;;;;;18.84;96.23;100318.91;5053988;28;20205;-81
2023/09/29 05:49:03;;;;;;;4.07;3.87;;;;;;;18.84;96.21;100314.47;5054958;28;20241;-84
2023/09/29 05:51:30;;;;;;;4.20;3.80;;;;;;;18.80;96.76;100307.66;5053835;28;20694;-83
2023/09/29 05:53:58;;;;;;;4.10;3.80;;;;;;;18.84;96.80;100303.91;5049533;28;20212;-79
2023/09/29 05:56:26;;;;;;;3.97;3.77;;;;;;;18.82;97.09;100297.84;5052726;28;20208;-81
2023/09/29 05:58:55;;;;;;;4.37;3.97;;;;;;;18.85;96.86;100292.38;5050420;28;20284;-81
2023/09/29 06:01:22;;;;;;;4.33;3.97;;;;;;;18.81;97.52;100290.84;5048958;28;20204;-80
2023/09/29 06:03:48;;;;;;;4.57;4.17;;;;;;;18.85;97.44;100286.25;5051433;28;20205;-80
2023/09/29 06:06:16;;;;;;;4.40;4.00;;;;;;;18.86;97.66;100285.31;5052559;28;20215;-82
2023/09/29 06:08:43;;;;;;;4.40;4.10;;;;;;;18.88;97.50;100290.50;5052968;28;20430;-80
2023/09/29 06:11:09;;;;;;;4.40;4.10;;;;;;;18.85;97.49;100302.13;5053760;28;20635;-82
2023/09/29 06:13:37;;;;;;;4.33;4.03;;;;;;;18.87;97.63;100299.38;5051272;28;20209;-82
2023/09/29 06:16:05;;;;;;;4.60;4.30;;;;;;;18.82;98.19;100281.13;5050277;28;20222;-81
2023/09/29 06:18:32;;;;;;;4.30;3.90;;;;;;;18.84;98.84;100266.03;5051646;28;20231;-81
2023/09/29 06:21:00;;;;;;;4.60;4.30;;;;;;;18.83;98.71;100267.81;5049834;28;20222;-80
2023/09/29 06:23:26;;;;;;;4.97;4.20;;;;;;;18.79;99.49;100262.75;5054027;28;20209;-83
2023/09/29 06:25:57;;;;;;;4.40;4.10;;;;;;;18.82;98.60;100281.97;5052149;28;20209;-83
2023/09/29 06:28:24;;;;;;;4.50;4.20;;;;;;;18.76;97.90;100300.78;5055509;28;20274;-78
2023/09/29 06:30:51;;;;;;;4.40;4.10;;;;;;;18.86;97.99;100311.75;5064507;28;20229;-82
2023/09/29 06:33:19;;;;;;;4.77;4.37;;;;;;;18.91;97.87;100315.00;5044216;28;20201;-83
2023/09/29 06:35:45;;;;;;;5.00;4.60;;;;;;;18.92;98.04;100311.41;5051992;28;20307;-83
2023/09/29 06:38:12;;;;;;;4.23;3.93;;;;;;;18.96;97.76;100323.53;5055090;28;20205;-85
2023/09/29 06:40:38;;;;;;;4.97;4.07;;;;;;;18.92;97.29;100329.06;5055919;28;20236;-81
2023/09/29 06:43:05;;;;;;;4.97;4.50;;;;;;;19.00;96.15;100343.56;5055529;28;20679;-83
2023/09/29 06:45:32;;;;;;;4.10;3.80;;;;;;;19.03;96.56;100346.06;5052732;28;20217;-83
2023/09/29 06:47:58;;;;;;;5.57;4.10;;;;;;;19.10;96.81;100349.22;5048773;28;20232;-82
2023/09/29 06:50:26;;;;;;;4.33;4.03;;;;;;;19.07;97.95;100340.59;5048727;28;20632;-83
2023/09/29 06:52:53;;;;;;;4.53;4.13;;;;;;;19.13;97.62;100334.97;5053112;28;20203;-82
2023/09/29 06:55:19;;;;;;;5.07;4.10;;;;;;;19.10;98.82;100324.53;5057602;28;20220;-82
2023/09/29 06:57:46;;;;;;;4.83;4.53;;;;;;;19.11;99.43;100313.88;5040133;28;20201;-87
2023/09/29 07:00:13;;;;;;;4.37;3.97;;;;;;;19.13;99.34;100306.72;5300514;22;20248;-87
2023/09/29 07:02:49;;;;;;;4.77;4.37;;;;;;;19.15;100.00;100298.69;5062711;28;20215;-86
2023/09/29 07:05:16;;;;;;;5.13;4.47;;;;;;;19.16;100.00;100292.44;5065077;28;20219;-86
2023/09/29 07:07:44;;;;;;;4.13;3.83;;;;;;;19.17;100.00;100281.78;5049204;28;20209;-83
2023/09/29 07:10:11;;;;;;;5.07;4.57;;;;;;;19.22;100.00;100273.56;5041881;28;20307;-83
2023/09/29 07:12:38;;;;;;;4.50;4.20;;;;;;;19.19;100.00;100287.00;5041732;28;20205;-88
2023/09/29 07:15:05;;;;;;;4.60;4.20;;;;;;;19.13;100.00;100287.34;5060236;28;20209;-82
2023/09/29 07:17:32;;;;;;;5.33;4.40;;;;;;;19.19;99.88;100300.22;5062764;28;20235;-86
2023/09/29 07:19:59;;;;;;;4.63;4.23;;;;;;;19.29;99.18;100309.34;5062347;28;20721;-83
2023/09/29 07:25:11;;;;;;;4.57;4.20;;;;;;;19.41;99.09;100310.44;5074836;28;20192;-90
2023/09/29 07:27:39;;;;;;;6.77;4.37;;;;;;;19.45;99.26;100306.66;5079466;28;20395;-86
2023/09/29 07:30:08;;;;;;;4.00;3.80;;;;;;;19.44;99.44;100297.88;5063835;28;20687;-84
2023/09/29 07:32:34;;;;;;;4.93;4.43;;;;;;;19.46;99.88;100295.09;5059758;28;20201;-85
2023/09/29 07:35:01;;;;;;;5.13;4.73;;;;;;;19.44;97.10;100339.34;5047540;28;20209;-85
2023/09/29 07:37:27;;;;;;;8.97;4.73;;;;;;;19.53;96.49;100336.19;5054526;28;20230;-81
2023/09/29 07:39:54;;;;;;;5.17;4.47;;;;;;;19.53;97.72;100322.09;5064271;28;20717;-82
2023/09/29 07:42:21;;;;;;;4.60;4.30;;;;;;;19.58;97.71;100326.19;5064937;28;20213;-81
2023/09/29 07:44:48;;;;;;;6.10;5.07;;;;;;;19.45;99.51;100298.72;5063732;28;20259;-82
2023/09/29 07:47:14;;;;;;;5.67;5.17;;;;;;;19.45;96.61;100333.97;5046019;28;20210;-84
2023/09/29 07:49:41;;;;;;;5.63;4.97;;;;;;;19.43;92.68;100396.75;5058767;28;20244;-81
2023/09/29 07:52:08;;;;;;;4.77;4.47;;;;;;;19.52;92.19;100407.75;5056512;28;20204;-83
2023/09/29 07:54:35;;;;;;;5.57;5.13;;;;;;;19.58;91.88;100432.09;5058874;28;20208;-84
2023/09/29 07:57:02;;;;;;;5.67;5.17;;;;;;;19.61;90.05;100466.34;5064163;28;20205;-83
2023/09/29 07:59:30;;;;;;;5.13;4.70;;;;;;;19.69;90.47;100471.22;5063516;28;20287;-85
2023/09/29 08:01:58;;;;;;;5.63;4.93;;;;;;;19.74;89.84;100482.44;5064428;28;20204;-84
2023/09/29 08:04:24;;;;;;;4.70;4.40;;;;;;;19.64;88.89;100510.31;5062076;28;20213;-84
2023/09/29 08:06:51;;;;;;;5.93;5.27;;;;;;;19.76;88.67;100515.00;5064023;28;20243;-84
2023/09/29 08:09:17;;;;;;;5.33;4.83;;;;;;;19.84;88.92;100510.13;5065497;28;20240;-84
2023/09/29 08:11:44;;;;;;;5.03;4.63;;;;;;;19.88;89.71;100500.22;5063196;28;20671;-84
2023/09/29 08:14:10;;;;;;;6.67;4.80;;;;;;;19.90;90.70;100484.19;5061224;28;20220;-83
2023/09/29 08:16:39;;;;;;;5.10;4.80;;;;;;;19.87;94.75;100423.47;5053748;28;20223;-86
2023/09/29 08:19:05;;;;;;;5.80;4.47;;;;;;;19.82;95.13;100387.50;5058609;28;20281;-86
2023/09/29 08:21:33;;;;;;;4.60;4.20;;;;;;;19.95;95.02;100389.41;5051589;28;20662;-82
2023/09/29 08:24:02;;;;;;;4.70;4.40;;;;;;;20.04;95.86;100365.88;5059817;28;20231;-86
2023/09/29 08:26:29;;;;;;;4.80;4.40;;;;;;;20.08;95.78;100342.72;5059728;28;20212;-85
2023/09/29 08:28:57;;;;;;;4.70;4.30;;;;;;;19.99;98.51;100338.78;5059301;28;20277;-85
2023/09/29 08:31:23;;;;;;;4.97;4.53;;;;;;;20.06;97.29;100330.47;5057366;28;20215;-86
2023/09/29 08:33:51;;;;;;;5.90;4.97;;;;;;;20.07;97.09;100329.53;5044452;28;20700;-83
2023/09/29 08:36:17;;;;;;;5.00;4.70;;;;;;;20.04;97.96;100330.59;5059488;28;20203;-82
2023/09/29 08:38:44;;;;;;;5.10;4.70;;;;;;;19.99;97.56;100325.53;5058279;28;20197;-84
2023/09/29 08:41:11;;;;;;;5.50;5.00;;;;;;;19.92;94.76;100376.34;5058454;28;20213;-85
2023/09/29 08:43:40;;;;;;;7.07;4.33;;;;;;;19.98;93.06;100394.53;5049661;28;20201;-84
2023/09/29 08:46:09;;;;;;;5.10;4.57;;;;;;;19.99;92.43;100404.19;5063146;28;20212;-84
2023/09/29 08:48:36;;;;;;;5.30;4.93;;;;;;;20.09;91.75;100429.19;5062948;28;20275;-85
2023/09/29 08:51:04;;;;;;;5.13;4.73;;;;;;;20.07;91.07;100438.19;5055492;28;20283;-82
2023/09/29 08:53:32;;;;;;;4.60;4.30;;;;;;;20.08;92.53;100427.50;5050866;28;20210;-85
2023/09/29 08:56:04;;;;;;;4.90;4.50;;;;;;;20.14;90.43;100445.69;5044788;28;20213;-83
2023/09/29 08:58:32;;;;;;;4.83;4.43;;;;;;;20.12;89.81;100450.22;5046144;28;20255;-85
2023/09/29 09:00:59;;;;;;;4.47;4.03;;;;;;;20.20;88.40;100484.25;5057419;28;20234;-83
2023/09/29 09:03:26;;;;;;;5.03;4.63;;;;;;;20.28;86.63;100507.63;5057147;28;20205;-83
2023/09/29 09:05:53;;;;;;;5.33;4.17;;;;;;;20.33;87.12;100517.03;5057244;28;20248;-85
2023/09/29 09:08:22;;;;;;;6.13;4.17;;;;;;;20.34;88.08;100505.50;5056868;28;20224;-84
2023/09/29 09:10:50;;;;;;;4.33;3.93;;;;;;;20.39;87.75;100498.09;5056878;28;20225;-85
2023/09/29 09:13:31;;;;;;;4.47;4.03;;;;;;;20.42;88.11;100489.13;5050024;28;20684;-85
2023/09/29 09:15:58;;;;;;;4.10;3.80;;;;;;;20.48;88.61;100482.63;5059992;28;20282;-85
2023/09/29 09:18:34;;;;;;;3.70;3.40;;;;;;;20.39;88.48;100460.13;5038919;28;20299;-86
2023/09/29 09:21:24;;;;;;;4.00;3.67;;;;;;;20.43;88.41;100464.31;5056576;28;20867;-86
2023/09/29 09:23:54;;;;;;;3.70;3.50;;;;;;;20.44;85.67;100522.56;5051896;28;20299;-86
2023/09/29 09:26:22;;;;;;;4.53;4.20;;;;;;;20.51;89.34;100480.63;5054799;28;20216;-87
2023/09/29 09:31:52;;;;;;;4.00;3.77;;;;;;;20.54;89.92;100453.91;5049703;28;20649;-87
2023/09/29 09:34:19;;;;;;;4.30;3.90;;;;;;;20.59;90.41;100424.50;5054509;28;20201;-85
2023/09/29 09:36:52;;;;;;;3.87;3.63;;;;;;;20.62;92.98;100390.69;5055767;28;20211;-86
2023/09/29 09:39:24;;;;;;;4.40;4.07;;;;;;;20.59;89.82;100408.56;5055662;28;20252;-85
2023/09/29 09:41:55;;;;;;;4.57;3.77;;;;;;;20.65;90.65;100420.63;5055324;28;20210;-85
2023/09/29 09:45:15;;;;;;;4.10;3.80;;;;;;;20.65;90.54;100418.81;5049152;28;20300;-85
2023/09/29 09:47:41;;;;;;;3.80;3.50;;;;;;;20.74;90.98;100412.94;5016673;28;20591;-85
2023/09/29 09:50:11;;;;;;;3.97;3.67;;;;;;;20.84;90.96;100418.53;5055109;28;20860;-87
2023/09/29 09:52:40;;;;;;;4.00;3.70;;;;;;;20.85;88.74;100430.84;5058529;28;20733;-84
2023/09/29 09:55:11;;;;;;;4.20;3.53;;;;;;;20.89;85.64;100512.00;5051244;28;20208;-84
2023/09/29 09:57:38;;;;;;;4.30;3.40;;;;;;;20.97;89.44;100445.16;5054563;28;20759;-86
2023/09/29 10:00:08;;;;;;;4.33;4.03;;;;;;;21.00;87.77;100469.69;5053498;28;20601;-85
2023/09/29 10:02:39;;;;;;;4.97;4.47;;;;;;;21.12;87.08;100480.50;5055716;28;20393;-84
2023/09/29 10:05:12;;;;;;;4.07;3.73;;;;;;;21.18;84.67;100518.13;5054220;28;20206;-85
2023/09/29 10:07:45;;;;;;;4.77;4.30;;;;;;;21.25;85.30;100523.06;5056157;28;20209;-84
2023/09/29 10:10:24;;;;;;;3.83;3.43;;;;;;;21.37;85.12;100523.16;5055764;28;20799;-86
2023/09/29 10:12:54;;;;;;;4.10;3.80;;;;;;;21.40;86.89;100496.41;5055722;28;20615;-86
2023/09/29 10:15:21;;;;;;;4.03;3.83;;;;;;;21.29;83.68;100517.50;5054780;28;20227;-86
2023/09/29 10:17:49;;;;;;;4.83;4.10;;;;;;;21.46;83.39;100561.59;5056127;28;20750;-86
2023/09/29 10:20:20;;;;;;;3.90;3.50;;;;;;;21.36;80.15;100617.03;5058879;28;20321;-83
2023/09/29 10:22:54;;;;;;;4.20;3.77;;;;;;;21.50;83.00;100587.00;5060395;28;20206;-84
2023/09/29 10:25:21;;;;;;;4.20;3.83;;;;;;;21.51;86.77;100500.22;5059484;28;20213;-83
2023/09/29 10:27:50;;;;;;;4.20;3.90;;;;;;;21.57;88.92;100444.91;5060124;28;20699;-84
2023/09/29 10:30:17;;;;;;;3.80;3.40;;;;;;;21.65;88.83;100431.13;5060543;28;20267;-80
2023/09/29 10:32:45;;;;;;;4.37;4.07;;;;;;;21.59;90.11;100402.31;5052176;28;20580;-83
2023/09/29 10:35:18;;;;;;;6.23;3.97;;;;;;;21.60;91.64;100367.69;5059812;28;20677;-83
2023/09/29 10:37:47;;;;;;;4.50;4.20;;;;;;;21.62;90.51;100380.84;5055895;28;20202;-84
2023/09/29 10:40:22;;;;;;;3.83;3.53;;;;;;;21.71;91.30;100358.13;5055064;28;20232;-84
2023/09/29 10:42:54;;;;;;;4.33;4.03;;;;;;;21.72;92.37;100347.38;5043038;28;20224;-84
2023/09/29 10:45:25;;;;;;;4.13;3.83;;;;;;;21.78;89.99;100362.06;5058821;28;20209;-82
2023/09/29 10:47:53;;;;;;;3.80;3.50;;;;;;;21.84;88.16;100424.59;5059408;28;20201;-85
2023/09/29 10:50:20;;;;;;;6.80;4.07;;;;;;;22.00;88.70;100417.28;5057624;28;20699;-82
2023/09/29 10:52:46;;;;;;;3.93;3.63;;;;;;;22.13;87.66;100426.16;5058672;28;20198;-83
2023/09/29 10:55:13;;;;;;;4.37;3.97;;;;;;;22.29;86.61;100441.09;5058681;28;20217;-84
2023/09/29 10:57:43;;;;;;;4.77;4.37;;;;;;;22.39;87.38;100448.34;5058614;28;20212;-83
2023/09/29 11:00:11;;;;;;;4.63;4.20;;;;;;;22.52;85.25;100480.28;5057578;28;20656;-83
2023/09/29 11:02:37;;;;;;;4.20;3.90;;;;;;;22.57;83.44;100503.91;5058697;28;20205;-84
2023/09/29 11:05:10;;;;;;;3.97;3.60;;;;;;;22.69;78.38;100590.88;5057054;28;20209;-83
2023/09/29 11:07:46;;;;;;;4.00;3.70;;;;;;;22.89;78.75;100607.31;5047835;28;20206;-83
2023/09/29 11:10:14;;;;;;;3.50;3.20;;;;;;;22.98;74.62;100676.75;5037844;28;20232;-82
2023/09/29 11:12:46;;;;;;;6.07;3.47;;;;;;;23.20;75.03;100717.97;5038024;28;20275;-83
2023/09/29 11:15:13;;;;;;;3.40;3.20;;;;;;;23.25;72.88;100758.47;5054817;28;20219;-84
2023/09/29 11:17:47;;;;;;;4.33;3.87;;;;;;;23.27;73.88;100756.56;5059771;28;20206;-84
2023/09/29 11:20:16;;;;;;;4.33;3.13;;;;;;;23.37;73.44;100770.97;5056739;28;20248;-83
2023/09/29 11:22:45;;;;;;;3.87;3.57;;;;;;;23.48;73.38;100772.03;5058377;28;20296;-83
2023/09/29 11:25:21;;;;;;;3.90;3.17;;;;;;;23.44;73.76;100787.38;5058027;28;20676;-84
2023/09/29 11:27:52;;;;;;;3.90;3.60;;;;;;;23.46;72.51;100742.81;5050380;28;20205;-83